sensor_id;sensor_type;location;lat;lon;timestamp;temperature;humidity
14769;DHT22;7476;49.404;11.152;2024-03-25T00:00:07;5.00;99.90
14769;DHT22;7476;49.404;11.152;2024-03-25T00:02:37;5.00;99.90
14769;DHT22;7476;49.404;11.152;2024-03-25T00:05:04;5.00;99.90
14769;DHT22;7476;49.404;11.152;2024-03-25T00:07:32;5.00;99.90
14769;DHT22;7476;49.404;11.152;2024-03-25T00:09:58;5.10;88.20
14769;DHT22;7476;49.404;11.152;2024-03-25T00:12:25;5.10;91.70
14769;DHT22;7476;49.404;11.152;2024-03-25T00:14:51;5.10;88.30
14769;DHT22;7476;49.404;11.152;2024-03-25T00:17:17;5.10;77.10
14769;DHT22;7476;49.404;11.152;2024-03-25T00:19:46;5.10;83.40
14769;DHT22;7476;49.404;11.152;2024-03-25T00:22:16;5.10;78.40
14769;DHT22;7476;49.404;11.152;2024-03-25T00:24:42;5.10;65.80
14769;DHT22;7476;49.404;11.152;2024-03-25T00:27:08;5.10;60.80
14769;DHT22;7476;49.404;11.152;2024-03-25T00:29:34;5.20;42.60
14769;DHT22;7476;49.404;11.152;2024-03-25T00:32:01;5.10;43.30
14769;DHT22;7476;49.404;11.152;2024-03-25T00:34:26;5.10;33.20
14769;DHT22;7476;49.404;11.152;2024-03-25T00:36:54;5.20;8.20
14769;DHT22;7476;49.404;11.152;2024-03-25T00:39:20;5.20;2.50
14769;DHT22;7476;49.404;11.152;2024-03-25T00:41:47;5.20;8.80
14769;DHT22;7476;49.404;11.152;2024-03-25T00:44:13;5.20;1.00
14769;DHT22;7476;49.404;11.152;2024-03-25T00:46:39;5.20;1.00
14769;DHT22;7476;49.404;11.152;2024-03-25T00:49:07;5.30;1.00
14769;DHT22;7476;49.404;11.152;2024-03-25T00:51:34;5.30;1.00
14769;DHT22;7476;49.404;11.152;2024-03-25T00:54:01;5.30;1.00
14769;DHT22;7476;49.404;11.152;2024-03-25T00:56:28;5.30;1.00
14769;DHT22;7476;49.404;11.152;2024-03-25T00:58:54;5.20;1.00
14769;DHT22;7476;49.404;11.152;2024-03-25T01:01:21;5.20;1.00
14769;DHT22;7476;49.404;11.152;2024-03-25T01:03:46;5.20;1.00
14769;DHT22;7476;49.404;11.152;2024-03-25T01:06:13;5.20;1.00
14769;DHT22;7476;49.404;11.152;2024-03-25T01:08:39;5.30;1.00
14769;DHT22;7476;49.404;11.152;2024-03-25T01:11:07;5.30;1.00
14769;DHT22;7476;49.404;11.152;2024-03-25T01:13:32;5.30;1.00
14769;DHT22;7476;49.404;11.152;2024-03-25T01:15:59;5.30;1.00
14769;DHT22;7476;49.404;11.152;2024-03-25T01:18:25;5.30;1.00
14769;DHT22;7476;49.404;11.152;2024-03-25T01:20:51;5.30;1.00
14769;DHT22;7476;49.404;11.152;2024-03-25T01:23:17;5.30;1.00
14769;DHT22;7476;49.404;11.152;2024-03-25T01:25:43;5.30;1.00
14769;DHT22;7476;49.404;11.152;2024-03-25T01:28:11;5.30;1.00
14769;DHT22;7476;49.404;11.152;2024-03-25T01:30:37;5.30;1.00
14769;DHT22;7476;49.404;11.152;2024-03-25T01:33:04;5.30;1.00
14769;DHT22;7476;49.404;11.152;2024-03-25T01:35:31;5.30;1.00
14769;DHT22;7476;49.404;11.152;2024-03-25T01:37:57;5.20;1.00
14769;DHT22;7476;49.404;11.152;2024-03-25T01:40:24;5.20;1.00
14769;DHT22;7476;49.404;11.152;2024-03-25T01:42:55;5.20;1.00
14769;DHT22;7476;49.404;11.152;2024-03-25T01:45:24;5.20;1.00
14769;DHT22;7476;49.404;11.152;2024-03-25T01:47:50;5.30;1.00
14769;DHT22;7476;49.404;11.152;2024-03-25T01:50:17;5.30;1.00
14769;DHT22;7476;49.404;11.152;2024-03-25T01:52:42;5.30;1.00
14769;DHT22;7476;49.404;11.152;2024-03-25T01:55:14;5.30;1.00
14769;DHT22;7476;49.404;11.152;2024-03-25T01:57:42;5.40;1.00
14769;DHT22;7476;49.404;11.152;2024-03-25T02:00:09;5.40;1.00
14769;DHT22;7476;49.404;11.152;2024-03-25T02:02:38;5.30;1.00
14769;DHT22;7476;49.404;11.152;2024-03-25T02:05:07;5.30;1.00
14769;DHT22;7476;49.404;11.152;2024-03-25T02:07:35;5.30;1.00
14769;DHT22;7476;49.404;11.152;2024-03-25T02:10:02;5.30;1.00
14769;DHT22;7476;49.404;11.152;2024-03-25T02:12:29;5.20;1.00
14769;DHT22;7476;49.404;11.152;2024-03-25T02:14:56;5.20;1.00
14769;DHT22;7476;49.404;11.152;2024-03-25T02:17:21;5.20;1.00
14769;DHT22;7476;49.404;11.152;2024-03-25T02:19:50;5.20;1.00
14769;DHT22;7476;49.404;11.152;2024-03-25T02:22:15;5.20;1.00
14769;DHT22;7476;49.404;11.152;2024-03-25T02:24:43;5.20;1.00
14769;DHT22;7476;49.404;11.152;2024-03-25T02:27:12;5.20;1.00
14769;DHT22;7476;49.404;11.152;2024-03-25T02:29:40;5.20;1.00
14769;DHT22;7476;49.404;11.152;2024-03-25T02:32:06;5.20;1.00
14769;DHT22;7476;49.404;11.152;2024-03-25T02:34:35;5.20;1.00
14769;DHT22;7476;49.404;11.152;2024-03-25T02:37:01;5.20;1.00
14769;DHT22;7476;49.404;11.152;2024-03-25T02:39:28;5.20;1.00
14769;DHT22;7476;49.404;11.152;2024-03-25T02:41:54;5.20;1.00
14769;DHT22;7476;49.404;11.152;2024-03-25T02:44:22;5.10;1.00
14769;DHT22;7476;49.404;11.152;2024-03-25T02:46:48;5.20;1.00
14769;DHT22;7476;49.404;11.152;2024-03-25T02:49:15;5.10;1.00
14769;DHT22;7476;49.404;11.152;2024-03-25T02:51:41;5.10;1.00
14769;DHT22;7476;49.404;11.152;2024-03-25T02:54:08;5.10;1.00
14769;DHT22;7476;49.404;11.152;2024-03-25T02:56:34;5.10;1.00
14769;DHT22;7476;49.404;11.152;2024-03-25T02:59:01;5.10;1.00
14769;DHT22;7476;49.404;11.152;2024-03-25T03:01:28;5.10;1.00
14769;DHT22;7476;49.404;11.152;2024-03-25T03:03:55;5.10;1.00
14769;DHT22;7476;49.404;11.152;2024-03-25T03:06:20;5.10;1.00
14769;DHT22;7476;49.404;11.152;2024-03-25T03:08:48;5.10;1.00
14769;DHT22;7476;49.404;11.152;2024-03-25T03:11:13;5.10;1.00
14769;DHT22;7476;49.404;11.152;2024-03-25T03:13:40;5.10;1.00
14769;DHT22;7476;49.404;11.152;2024-03-25T03:16:06;5.10;1.00
14769;DHT22;7476;49.404;11.152;2024-03-25T03:18:34;5.10;1.00
14769;DHT22;7476;49.404;11.152;2024-03-25T03:21:00;5.10;1.00
14769;DHT22;7476;49.404;11.152;2024-03-25T03:23:27;5.10;1.00
14769;DHT22;7476;49.404;11.152;2024-03-25T03:25:53;5.10;1.00
14769;DHT22;7476;49.404;11.152;2024-03-25T03:28:19;5.10;1.00
14769;DHT22;7476;49.404;11.152;2024-03-25T03:30:45;5.10;1.00
14769;DHT22;7476;49.404;11.152;2024-03-25T03:33:11;5.00;1.00
14769;DHT22;7476;49.404;11.152;2024-03-25T03:35:38;5.00;1.00
14769;DHT22;7476;49.404;11.152;2024-03-25T03:38:05;5.00;1.00
14769;DHT22;7476;49.404;11.152;2024-03-25T03:40:32;5.00;1.00
14769;DHT22;7476;49.404;11.152;2024-03-25T03:42:59;4.90;1.00
14769;DHT22;7476;49.404;11.152;2024-03-25T03:45:25;4.90;1.00
14769;DHT22;7476;49.404;11.152;2024-03-25T03:47:51;4.80;1.00
14769;DHT22;7476;49.404;11.152;2024-03-25T03:50:17;4.80;1.00
14769;DHT22;7476;49.404;11.152;2024-03-25T03:52:45;4.80;1.00
14769;DHT22;7476;49.404;11.152;2024-03-25T03:55:11;4.80;1.00
14769;DHT22;7476;49.404;11.152;2024-03-25T03:57:37;4.80;1.00
14769;DHT22;7476;49.404;11.152;2024-03-25T04:00:03;4.90;1.00
14769;DHT22;7476;49.404;11.152;2024-03-25T04:02:30;4.90;1.00
14769;DHT22;7476;49.404;11.152;2024-03-25T04:04:56;4.80;1.00
14769;DHT22;7476;49.404;11.152;2024-03-25T04:07:22;4.70;1.00
14769;DHT22;7476;49.404;11.152;2024-03-25T04:09:53;4.70;1.00
14769;DHT22;7476;49.404;11.152;2024-03-25T04:12:20;4.70;5.30
14769;DHT22;7476;49.404;11.152;2024-03-25T04:14:46;4.70;1.00
14769;DHT22;7476;49.404;11.152;2024-03-25T04:17:14;4.70;1.00
14769;DHT22;7476;49.404;11.152;2024-03-25T04:19:40;4.70;1.00
14769;DHT22;7476;49.404;11.152;2024-03-25T04:22:07;4.60;1.00
14769;DHT22;7476;49.404;11.152;2024-03-25T04:24:32;4.50;1.00
14769;DHT22;7476;49.404;11.152;2024-03-25T04:27:01;4.50;1.00
14769;DHT22;7476;49.404;11.152;2024-03-25T04:29:26;4.50;1.00
14769;DHT22;7476;49.404;11.152;2024-03-25T04:31:54;4.50;1.00
14769;DHT22;7476;49.404;11.152;2024-03-25T04:34:20;4.50;1.00
14769;DHT22;7476;49.404;11.152;2024-03-25T04:36:48;4.50;1.00
14769;DHT22;7476;49.404;11.152;2024-03-25T04:39:14;4.50;1.00
14769;DHT22;7476;49.404;11.152;2024-03-25T04:41:40;4.40;1.00
14769;DHT22;7476;49.404;11.152;2024-03-25T04:44:07;4.40;1.00
14769;DHT22;7476;49.404;11.152;2024-03-25T04:46:33;4.40;1.00
14769;DHT22;7476;49.404;11.152;2024-03-25T04:48:59;4.30;3.40
14769;DHT22;7476;49.404;11.152;2024-03-25T04:51:24;4.30;1.00
14769;DHT22;7476;49.404;11.152;2024-03-25T04:53:50;4.30;12.20
14769;DHT22;7476;49.404;11.152;2024-03-25T04:56:16;4.30;9.70
14769;DHT22;7476;49.404;11.152;2024-03-25T04:58:42;4.40;1.00
14769;DHT22;7476;49.404;11.152;2024-03-25T05:01:09;4.40;1.00
14769;DHT22;7476;49.404;11.152;2024-03-25T05:03:34;4.40;1.00
14769;DHT22;7476;49.404;11.152;2024-03-25T05:06:00;4.40;1.00
14769;DHT22;7476;49.404;11.152;2024-03-25T05:08:26;4.40;1.00
14769;DHT22;7476;49.404;11.152;2024-03-25T05:10:52;4.40;1.00
14769;DHT22;7476;49.404;11.152;2024-03-25T05:13:17;4.30;1.00
14769;DHT22;7476;49.404;11.152;2024-03-25T05:15:49;4.30;1.00
14769;DHT22;7476;49.404;11.152;2024-03-25T05:18:16;4.30;1.00
14769;DHT22;7476;49.404;11.152;2024-03-25T05:20:42;4.30;1.00
14769;DHT22;7476;49.404;11.152;2024-03-25T05:23:08;4.30;1.00
14769;DHT22;7476;49.404;11.152;2024-03-25T05:25:34;4.30;1.00
14769;DHT22;7476;49.404;11.152;2024-03-25T05:28:00;4.30;1.00
14769;DHT22;7476;49.404;11.152;2024-03-25T05:30:26;4.20;1.00
14769;DHT22;7476;49.404;11.152;2024-03-25T05:32:52;4.10;1.00
14769;DHT22;7476;49.404;11.152;2024-03-25T05:35:19;4.00;6.10
14769;DHT22;7476;49.404;11.152;2024-03-25T05:37:44;3.90;19.10
14769;DHT22;7476;49.404;11.152;2024-03-25T05:40:11;3.90;42.00
14769;DHT22;7476;49.404;11.152;2024-03-25T05:42:37;3.80;57.40
14769;DHT22;7476;49.404;11.152;2024-03-25T05:45:03;3.80;94.80
14769;DHT22;7476;49.404;11.152;2024-03-25T05:47:29;3.70;93.60
14769;DHT22;7476;49.404;11.152;2024-03-25T05:49:55;3.70;99.90
14769;DHT22;7476;49.404;11.152;2024-03-25T05:52:22;3.70;99.90
14769;DHT22;7476;49.404;11.152;2024-03-25T05:54:48;3.60;99.90
14769;DHT22;7476;49.404;11.152;2024-03-25T05:57:14;3.60;99.90
14769;DHT22;7476;49.404;11.152;2024-03-25T05:59:39;3.60;99.90
14769;DHT22;7476;49.404;11.152;2024-03-25T06:02:05;3.50;99.90
14769;DHT22;7476;49.404;11.152;2024-03-25T06:04:31;3.50;99.90
14769;DHT22;7476;49.404;11.152;2024-03-25T06:06:56;3.50;99.90
14769;DHT22;7476;49.404;11.152;2024-03-25T06:09:24;3.50;99.90
14769;DHT22;7476;49.404;11.152;2024-03-25T06:11:49;3.60;99.90
14769;DHT22;7476;49.404;11.152;2024-03-25T06:14:15;3.70;99.90
14769;DHT22;7476;49.404;11.152;2024-03-25T06:16:41;3.70;99.90
14769;DHT22;7476;49.404;11.152;2024-03-25T06:19:06;3.90;99.90
14769;DHT22;7476;49.404;11.152;2024-03-25T06:21:32;4.70;77.30
14769;DHT22;7476;49.404;11.152;2024-03-25T06:23:58;5.40;1.00
14769;DHT22;7476;49.404;11.152;2024-03-25T06:26:25;6.00;1.00
14769;DHT22;7476;49.404;11.152;2024-03-25T06:28:51;6.50;1.00
14769;DHT22;7476;49.404;11.152;2024-03-25T06:31:16;6.80;99.90
14769;DHT22;7476;49.404;11.152;2024-03-25T06:34:00;7.10;99.90
14769;DHT22;7476;49.404;11.152;2024-03-25T06:36:43;7.40;1.00
14769;DHT22;7476;49.404;11.152;2024-03-25T06:39:09;7.60;1.00
14769;DHT22;7476;49.404;11.152;2024-03-25T06:41:36;7.90;99.90
14769;DHT22;7476;49.404;11.152;2024-03-25T06:44:02;8.30;1.00
14769;DHT22;7476;49.404;11.152;2024-03-25T06:46:27;8.50;99.90
14769;DHT22;7476;49.404;11.152;2024-03-25T06:48:53;8.40;99.90
14769;DHT22;7476;49.404;11.152;2024-03-25T06:51:19;8.40;1.00
14769;DHT22;7476;49.404;11.152;2024-03-25T06:53:45;8.60;99.90
14769;DHT22;7476;49.404;11.152;2024-03-25T06:56:10;8.60;99.90
14769;DHT22;7476;49.404;11.152;2024-03-25T06:58:38;8.70;99.90
14769;DHT22;7476;49.404;11.152;2024-03-25T07:01:05;8.70;1.00
14769;DHT22;7476;49.404;11.152;2024-03-25T07:03:31;8.50;1.00
14769;DHT22;7476;49.404;11.152;2024-03-25T07:05:57;8.60;1.00
14769;DHT22;7476;49.404;11.152;2024-03-25T07:08:23;8.60;1.00
14769;DHT22;7476;49.404;11.152;2024-03-25T07:10:49;8.40;1.00
14769;DHT22;7476;49.404;11.152;2024-03-25T07:13:14;8.40;1.00
14769;DHT22;7476;49.404;11.152;2024-03-25T07:15:42;8.30;1.00
14769;DHT22;7476;49.404;11.152;2024-03-25T07:18:08;8.30;58.70
14769;DHT22;7476;49.404;11.152;2024-03-25T07:20:34;8.70;1.00
14769;DHT22;7476;49.404;11.152;2024-03-25T07:23:00;8.90;1.00
14769;DHT22;7476;49.404;11.152;2024-03-25T07:25:26;8.80;1.00
14769;DHT22;7476;49.404;11.152;2024-03-25T07:27:51;8.90;1.00
14769;DHT22;7476;49.404;11.152;2024-03-25T07:30:18;9.10;1.00
14769;DHT22;7476;49.404;11.152;2024-03-25T07:32:45;9.10;1.00
14769;DHT22;7476;49.404;11.152;2024-03-25T07:35:11;9.20;1.00
14769;DHT22;7476;49.404;11.152;2024-03-25T07:37:37;9.20;1.00
14769;DHT22;7476;49.404;11.152;2024-03-25T07:40:03;9.20;99.90
14769;DHT22;7476;49.404;11.152;2024-03-25T07:42:29;8.50;1.00
14769;DHT22;7476;49.404;11.152;2024-03-25T07:44:55;8.20;1.00
14769;DHT22;7476;49.404;11.152;2024-03-25T07:47:21;8.40;1.00
14769;DHT22;7476;49.404;11.152;2024-03-25T07:49:48;9.00;1.00
14769;DHT22;7476;49.404;11.152;2024-03-25T07:52:14;9.60;99.90
14769;DHT22;7476;49.404;11.152;2024-03-25T07:54:40;10.10;99.90
14769;DHT22;7476;49.404;11.152;2024-03-25T07:57:05;10.00;99.90
14769;DHT22;7476;49.404;11.152;2024-03-25T07:59:31;9.60;99.90
14769;DHT22;7476;49.404;11.152;2024-03-25T08:01:57;8.70;99.90
14769;DHT22;7476;49.404;11.152;2024-03-25T08:04:22;8.10;1.00
14769;DHT22;7476;49.404;11.152;2024-03-25T08:06:50;7.80;1.00
14769;DHT22;7476;49.404;11.152;2024-03-25T08:09:15;7.80;1.00
14769;DHT22;7476;49.404;11.152;2024-03-25T08:11:41;7.90;1.00
14769;DHT22;7476;49.404;11.152;2024-03-25T08:14:08;8.10;1.00
14769;DHT22;7476;49.404;11.152;2024-03-25T08:16:33;8.60;1.00
14769;DHT22;7476;49.404;11.152;2024-03-25T08:18:59;8.80;99.90
14769;DHT22;7476;49.404;11.152;2024-03-25T08:21:25;8.90;99.90
14769;DHT22;7476;49.404;11.152;2024-03-25T08:23:52;8.90;99.90
14769;DHT22;7476;49.404;11.152;2024-03-25T08:26:18;9.00;99.90
14769;DHT22;7476;49.404;11.152;2024-03-25T08:28:43;9.60;99.90
14769;DHT22;7476;49.404;11.152;2024-03-25T08:31:09;10.10;99.90
14769;DHT22;7476;49.404;11.152;2024-03-25T08:33:35;10.00;99.90
14769;DHT22;7476;49.404;11.152;2024-03-25T08:36:01;10.40;99.90
14769;DHT22;7476;49.404;11.152;2024-03-25T08:38:27;10.30;99.90
14769;DHT22;7476;49.404;11.152;2024-03-25T08:40:54;10.20;99.90
14769;DHT22;7476;49.404;11.152;2024-03-25T08:43:20;10.30;99.90
14769;DHT22;7476;49.404;11.152;2024-03-25T08:45:45;10.40;99.90
14769;DHT22;7476;49.404;11.152;2024-03-25T08:48:11;10.30;99.90
14769;DHT22;7476;49.404;11.152;2024-03-25T08:50:37;10.40;99.90
14769;DHT22;7476;49.404;11.152;2024-03-25T08:53:03;10.40;94.30
14769;DHT22;7476;49.404;11.152;2024-03-25T08:55:29;10.40;99.90
14769;DHT22;7476;49.404;11.152;2024-03-25T08:57:57;10.60;99.90
14769;DHT22;7476;49.404;11.152;2024-03-25T09:00:24;11.00;99.40
14769;DHT22;7476;49.404;11.152;2024-03-25T09:02:49;11.30;70.30
14769;DHT22;7476;49.404;11.152;2024-03-25T09:05:15;11.70;39.60
14769;DHT22;7476;49.404;11.152;2024-03-25T09:07:41;12.20;28.60
14769;DHT22;7476;49.404;11.152;2024-03-25T09:10:07;12.90;27.30
14769;DHT22;7476;49.404;11.152;2024-03-25T09:12:52;13.10;1.00
14769;DHT22;7476;49.404;11.152;2024-03-25T09:15:19;13.10;1.00
14769;DHT22;7476;49.404;11.152;2024-03-25T09:17:44;13.20;1.00
14769;DHT22;7476;49.404;11.152;2024-03-25T09:20:10;12.60;1.00
14769;DHT22;7476;49.404;11.152;2024-03-25T09:22:38;12.10;1.00
14769;DHT22;7476;49.404;11.152;2024-03-25T09:25:04;11.70;1.00
14769;DHT22;7476;49.404;11.152;2024-03-25T09:27:30;11.40;1.00
14769;DHT22;7476;49.404;11.152;2024-03-25T09:29:55;11.60;1.00
14769;DHT22;7476;49.404;11.152;2024-03-25T09:32:22;11.40;1.00
14769;DHT22;7476;49.404;11.152;2024-03-25T09:34:49;11.30;1.00
14769;DHT22;7476;49.404;11.152;2024-03-25T09:37:15;11.20;1.00
14769;DHT22;7476;49.404;11.152;2024-03-25T09:39:41;11.30;1.00
14769;DHT22;7476;49.404;11.152;2024-03-25T09:42:08;11.00;1.00
14769;DHT22;7476;49.404;11.152;2024-03-25T09:44:37;11.10;1.00
14769;DHT22;7476;49.404;11.152;2024-03-25T09:47:03;11.60;1.00
14769;DHT22;7476;49.404;11.152;2024-03-25T09:49:32;11.90;1.00
14769;DHT22;7476;49.404;11.152;2024-03-25T09:51:58;11.70;1.00
14769;DHT22;7476;49.404;11.152;2024-03-25T09:54:25;11.60;1.00
14769;DHT22;7476;49.404;11.152;2024-03-25T09:56:50;11.70;1.00
14769;DHT22;7476;49.404;11.152;2024-03-25T09:59:17;11.70;1.00
14769;DHT22;7476;49.404;11.152;2024-03-25T10:01:43;11.10;1.00
14769;DHT22;7476;49.404;11.152;2024-03-25T10:04:09;10.60;1.00
14769;DHT22;7476;49.404;11.152;2024-03-25T10:06:36;10.50;1.00
14769;DHT22;7476;49.404;11.152;2024-03-25T10:09:04;10.90;1.00
14769;DHT22;7476;49.404;11.152;2024-03-25T10:11:31;11.10;1.00
14769;DHT22;7476;49.404;11.152;2024-03-25T10:13:57;11.00;1.00
14769;DHT22;7476;49.404;11.152;2024-03-25T10:16:23;11.00;1.00
14769;DHT22;7476;49.404;11.152;2024-03-25T10:18:49;11.20;1.00
14769;DHT22;7476;49.404;11.152;2024-03-25T10:21:14;11.20;1.00
14769;DHT22;7476;49.404;11.152;2024-03-25T10:23:46;10.80;1.00
14769;DHT22;7476;49.404;11.152;2024-03-25T10:26:27;10.50;1.00
14769;DHT22;7476;49.404;11.152;2024-03-25T10:29:01;10.30;1.00
14769;DHT22;7476;49.404;11.152;2024-03-25T10:31:27;10.30;1.00
14769;DHT22;7476;49.404;11.152;2024-03-25T10:33:52;10.50;1.00
14769;DHT22;7476;49.404;11.152;2024-03-25T10:36:20;10.50;1.00
14769;DHT22;7476;49.404;11.152;2024-03-25T10:38:49;10.40;1.00
14769;DHT22;7476;49.404;11.152;2024-03-25T10:41:17;9.90;1.00
14769;DHT22;7476;49.404;11.152;2024-03-25T10:43:46;10.00;1.00
14769;DHT22;7476;49.404;11.152;2024-03-25T10:46:15;10.50;1.00
14769;DHT22;7476;49.404;11.152;2024-03-25T10:48:47;10.60;1.00
14769;DHT22;7476;49.404;11.152;2024-03-25T10:51:13;10.50;1.00
14769;DHT22;7476;49.404;11.152;2024-03-25T10:53:40;10.10;1.00
14769;DHT22;7476;49.404;11.152;2024-03-25T10:56:08;10.60;1.00
14769;DHT22;7476;49.404;11.152;2024-03-25T10:58:35;11.00;1.00
14769;DHT22;7476;49.404;11.152;2024-03-25T11:01:01;11.20;1.00
14769;DHT22;7476;49.404;11.152;2024-03-25T11:03:28;11.40;1.00
14769;DHT22;7476;49.404;11.152;2024-03-25T11:05:54;11.60;1.00
14769;DHT22;7476;49.404;11.152;2024-03-25T11:08:20;11.70;1.00
14769;DHT22;7476;49.404;11.152;2024-03-25T11:10:46;11.20;1.00
14769;DHT22;7476;49.404;11.152;2024-03-25T11:13:14;10.80;1.00
14769;DHT22;7476;49.404;11.152;2024-03-25T11:15:43;10.70;1.00
14769;DHT22;7476;49.404;11.152;2024-03-25T11:18:13;11.10;1.00
14769;DHT22;7476;49.404;11.152;2024-03-25T11:20:39;11.60;1.00
14769;DHT22;7476;49.404;11.152;2024-03-25T11:23:08;12.10;1.00
14769;DHT22;7476;49.404;11.152;2024-03-25T11:25:35;12.40;1.00
14769;DHT22;7476;49.404;11.152;2024-03-25T11:28:01;12.80;1.00
14769;DHT22;7476;49.404;11.152;2024-03-25T11:30:29;13.00;1.00
14769;DHT22;7476;49.404;11.152;2024-03-25T11:32:55;12.90;1.00
14769;DHT22;7476;49.404;11.152;2024-03-25T11:35:21;12.20;1.00
14769;DHT22;7476;49.404;11.152;2024-03-25T11:37:48;12.00;1.00
14769;DHT22;7476;49.404;11.152;2024-03-25T11:40:14;12.80;1.00
14769;DHT22;7476;49.404;11.152;2024-03-25T11:42:41;13.30;1.00
14769;DHT22;7476;49.404;11.152;2024-03-25T11:45:07;13.60;1.00
14769;DHT22;7476;49.404;11.152;2024-03-25T11:47:34;13.20;1.00
14769;DHT22;7476;49.404;11.152;2024-03-25T11:50:00;13.60;1.00
14769;DHT22;7476;49.404;11.152;2024-03-25T11:52:32;13.50;1.00
14769;DHT22;7476;49.404;11.152;2024-03-25T11:54:58;13.40;1.00
14769;DHT22;7476;49.404;11.152;2024-03-25T11:57:24;13.90;1.00
14769;DHT22;7476;49.404;11.152;2024-03-25T11:59:50;13.40;1.00
14769;DHT22;7476;49.404;11.152;2024-03-25T12:02:16;12.60;1.00
14769;DHT22;7476;49.404;11.152;2024-03-25T12:04:43;12.10;1.00
14769;DHT22;7476;49.404;11.152;2024-03-25T12:07:11;12.60;1.00
14769;DHT22;7476;49.404;11.152;2024-03-25T12:09:37;13.50;1.00
14769;DHT22;7476;49.404;11.152;2024-03-25T12:12:21;13.40;1.00
14769;DHT22;7476;49.404;11.152;2024-03-25T12:14:47;13.10;1.00
14769;DHT22;7476;49.404;11.152;2024-03-25T12:17:13;13.30;1.00
14769;DHT22;7476;49.404;11.152;2024-03-25T12:19:40;14.30;1.00
14769;DHT22;7476;49.404;11.152;2024-03-25T12:22:08;14.80;1.00
14769;DHT22;7476;49.404;11.152;2024-03-25T12:24:33;15.60;1.00
14769;DHT22;7476;49.404;11.152;2024-03-25T12:26:59;16.00;1.00
14769;DHT22;7476;49.404;11.152;2024-03-25T12:29:25;16.40;1.00
14769;DHT22;7476;49.404;11.152;2024-03-25T12:31:54;16.30;1.00
14769;DHT22;7476;49.404;11.152;2024-03-25T12:34:20;15.70;1.00
14769;DHT22;7476;49.404;11.152;2024-03-25T12:36:46;14.90;1.00
14769;DHT22;7476;49.404;11.152;2024-03-25T12:39:17;15.10;1.00
14769;DHT22;7476;49.404;11.152;2024-03-25T12:41:43;15.20;1.00
14769;DHT22;7476;49.404;11.152;2024-03-25T12:44:09;16.00;1.00
14769;DHT22;7476;49.404;11.152;2024-03-25T12:46:34;16.10;1.00
14769;DHT22;7476;49.404;11.152;2024-03-25T12:49:00;16.70;1.00
14769;DHT22;7476;49.404;11.152;2024-03-25T12:51:26;16.70;1.00
14769;DHT22;7476;49.404;11.152;2024-03-25T12:53:52;17.00;1.00
14769;DHT22;7476;49.404;11.152;2024-03-25T12:56:19;18.40;1.00
14769;DHT22;7476;49.404;11.152;2024-03-25T12:58:45;18.80;1.00
14769;DHT22;7476;49.404;11.152;2024-03-25T13:01:10;18.50;1.00
14769;DHT22;7476;49.404;11.152;2024-03-25T13:03:36;17.60;1.00
14769;DHT22;7476;49.404;11.152;2024-03-25T13:06:03;16.30;1.00
14769;DHT22;7476;49.404;11.152;2024-03-25T13:08:28;16.30;1.00
14769;DHT22;7476;49.404;11.152;2024-03-25T13:10:54;16.30;1.00
14769;DHT22;7476;49.404;11.152;2024-03-25T13:13:21;16.40;1.00
14769;DHT22;7476;49.404;11.152;2024-03-25T13:15:47;17.10;1.00
14769;DHT22;7476;49.404;11.152;2024-03-25T13:18:13;15.20;1.00
14769;DHT22;7476;49.404;11.152;2024-03-25T13:20:39;14.00;1.00
14769;DHT22;7476;49.404;11.152;2024-03-25T13:23:05;12.90;1.00
14769;DHT22;7476;49.404;11.152;2024-03-25T13:25:30;15.40;1.00
14769;DHT22;7476;49.404;11.152;2024-03-25T13:27:56;17.10;1.00
14769;DHT22;7476;49.404;11.152;2024-03-25T13:30:23;16.50;1.00
14769;DHT22;7476;49.404;11.152;2024-03-25T13:32:49;16.90;1.00
14769;DHT22;7476;49.404;11.152;2024-03-25T13:35:15;16.90;1.00
14769;DHT22;7476;49.404;11.152;2024-03-25T13:37:41;16.10;1.00
14769;DHT22;7476;49.404;11.152;2024-03-25T13:40:08;15.20;1.00
14769;DHT22;7476;49.404;11.152;2024-03-25T13:42:34;15.90;1.00
14769;DHT22;7476;49.404;11.152;2024-03-25T13:45:00;16.00;1.00
14769;DHT22;7476;49.404;11.152;2024-03-25T13:47:27;15.70;1.00
14769;DHT22;7476;49.404;11.152;2024-03-25T13:50:01;15.80;1.00
14769;DHT22;7476;49.404;11.152;2024-03-25T13:52:26;15.20;1.00
14769;DHT22;7476;49.404;11.152;2024-03-25T13:54:52;15.10;1.00
14769;DHT22;7476;49.404;11.152;2024-03-25T13:57:18;15.70;1.00
14769;DHT22;7476;49.404;11.152;2024-03-25T13:59:43;16.90;1.00
14769;DHT22;7476;49.404;11.152;2024-03-25T14:02:09;18.50;1.00
14769;DHT22;7476;49.404;11.152;2024-03-25T14:04:36;20.50;1.00
14769;DHT22;7476;49.404;11.152;2024-03-25T14:07:02;21.70;1.00
14769;DHT22;7476;49.404;11.152;2024-03-25T14:09:28;21.40;1.00
14769;DHT22;7476;49.404;11.152;2024-03-25T14:11:54;20.30;1.00
14769;DHT22;7476;49.404;11.152;2024-03-25T14:14:20;20.10;1.00
14769;DHT22;7476;49.404;11.152;2024-03-25T14:16:46;20.60;1.00
14769;DHT22;7476;49.404;11.152;2024-03-25T14:19:11;21.50;1.00
14769;DHT22;7476;49.404;11.152;2024-03-25T14:21:39;22.30;1.00
14769;DHT22;7476;49.404;11.152;2024-03-25T14:24:05;23.20;1.00
14769;DHT22;7476;49.404;11.152;2024-03-25T14:26:31;23.10;1.00
14769;DHT22;7476;49.404;11.152;2024-03-25T14:28:57;23.30;1.00
14769;DHT22;7476;49.404;11.152;2024-03-25T14:31:22;23.50;1.00
14769;DHT22;7476;49.404;11.152;2024-03-25T14:33:48;22.00;1.00
14769;DHT22;7476;49.404;11.152;2024-03-25T14:36:14;22.30;1.00
14769;DHT22;7476;49.404;11.152;2024-03-25T14:38:41;21.90;1.00
14769;DHT22;7476;49.404;11.152;2024-03-25T14:41:07;21.00;1.00
14769;DHT22;7476;49.404;11.152;2024-03-25T14:43:32;20.10;1.00
14769;DHT22;7476;49.404;11.152;2024-03-25T14:45:58;20.80;1.00
14769;DHT22;7476;49.404;11.152;2024-03-25T14:48:24;22.00;1.00
14769;DHT22;7476;49.404;11.152;2024-03-25T14:50:50;22.50;1.00
14769;DHT22;7476;49.404;11.152;2024-03-25T14:53:15;21.80;1.00
14769;DHT22;7476;49.404;11.152;2024-03-25T14:55:43;21.20;1.00
14769;DHT22;7476;49.404;11.152;2024-03-25T14:58:08;21.50;1.00
14769;DHT22;7476;49.404;11.152;2024-03-25T15:00:34;21.10;1.00
14769;DHT22;7476;49.404;11.152;2024-03-25T15:03:00;21.50;1.00
14769;DHT22;7476;49.404;11.152;2024-03-25T15:05:26;20.70;1.00
14769;DHT22;7476;49.404;11.152;2024-03-25T15:07:51;21.60;1.00
14769;DHT22;7476;49.404;11.152;2024-03-25T15:10:17;22.50;1.00
14769;DHT22;7476;49.404;11.152;2024-03-25T15:12:45;21.80;1.00
14769;DHT22;7476;49.404;11.152;2024-03-25T15:15:11;22.30;1.00
14769;DHT22;7476;49.404;11.152;2024-03-25T15:17:37;21.70;1.00
14769;DHT22;7476;49.404;11.152;2024-03-25T15:20:03;21.40;1.00
14769;DHT22;7476;49.404;11.152;2024-03-25T15:22:29;20.70;1.00
14769;DHT22;7476;49.404;11.152;2024-03-25T15:24:55;20.10;1.00
14769;DHT22;7476;49.404;11.152;2024-03-25T15:27:21;21.10;1.00
14769;DHT22;7476;49.404;11.152;2024-03-25T15:29:48;21.00;1.00
14769;DHT22;7476;49.404;11.152;2024-03-25T15:32:14;21.00;1.00
14769;DHT22;7476;49.404;11.152;2024-03-25T15:34:40;21.20;1.00
14769;DHT22;7476;49.404;11.152;2024-03-25T15:37:06;21.70;1.00
14769;DHT22;7476;49.404;11.152;2024-03-25T15:39:31;21.90;1.00
14769;DHT22;7476;49.404;11.152;2024-03-25T15:41:57;21.20;1.00
14769;DHT22;7476;49.404;11.152;2024-03-25T15:44:23;20.60;1.00
14769;DHT22;7476;49.404;11.152;2024-03-25T15:46:50;21.50;1.00